createdAt,value
2022-08-16T00:01:16.056Z,78.46
2022-08-16T00:03:43.948Z,79.43
2022-08-16T00:06:15.439Z,80.45
2022-08-16T00:08:45.811Z,79.67
2022-08-16T00:11:18.889Z,79.14
2022-08-16T00:13:53.687Z,80.06
2022-08-16T00:17:05.595Z,78.99
2022-08-16T00:19:13.632Z,79.25
2022-08-16T00:21:46.519Z,77.77
2022-08-16T00:24:31.071Z,78.08
2022-08-16T00:27:01.056Z,77.12
2022-08-16T00:29:30.000Z,76.49
2022-08-16T00:32:11.081Z,77.98
2022-08-16T00:34:44.672Z,77.13
2022-08-16T00:37:25.169Z,78.93
2022-08-16T00:40:34.347Z,77.99
2022-08-16T00:43:12.202Z,78.96
2022-08-16T00:45:58.274Z,79.08
2022-08-16T00:48:44.131Z,80.42
2022-08-16T00:51:16.116Z,79.77
2022-08-16T00:53:48.584Z,79.96
2022-08-16T00:56:55.889Z,79.83
2022-08-16T00:59:09.265Z,79.01
2022-08-16T01:01:41.975Z,80.31
2022-08-16T01:04:30.192Z,79.76
2022-08-16T01:07:01.453Z,80.49
2022-08-16T01:09:33.690Z,80.82
2022-08-16T01:12:08.568Z,80.94
2022-08-16T01:14:38.952Z,81.76
2022-08-16T01:17:08.460Z,81.10
2022-08-16T01:19:40.950Z,80.60
2022-08-16T01:22:58.895Z,80.40
2022-08-16T01:25:02.453Z,80.97
2022-08-16T01:27:31.022Z,79.21
2022-08-16T01:30:02.883Z,79.09
2022-08-16T01:32:33.457Z,80.69
2022-08-16T01:35:02.533Z,81.14
2022-08-16T01:37:35.497Z,81.14
2022-08-16T01:40:07.231Z,81.08
2022-08-16T01:42:37.401Z,79.84
2022-08-16T01:45:10.869Z,79.73
2022-08-16T01:47:39.350Z,80.57
2022-08-16T01:50:42.548Z,79.83
2022-08-16T01:53:19.967Z,80.77
2022-08-16T01:55:54.005Z,80.07
2022-08-16T01:58:22.293Z,79.32
2022-08-16T02:00:50.613Z,79.80
2022-08-16T02:03:24.252Z,78.31
2022-08-16T02:05:52.378Z,78.38
2022-08-16T02:08:33.439Z,78.68
2022-08-16T02:11:15.009Z,78.76
2022-08-16T02:13:42.731Z,79.70
2022-08-16T02:16:18.600Z,79.34
2022-08-16T02:18:49.097Z,80.00
2022-08-16T02:21:17.110Z,80.91
2022-08-16T02:24:01.158Z,78.93
2022-08-16T02:26:34.219Z,79.41
2022-08-16T02:29:02.510Z,81.07
2022-08-16T02:32:02.859Z,81.24
2022-08-16T02:34:19.939Z,80.48
2022-08-16T02:37:00.752Z,79.82
2022-08-16T02:39:30.283Z,80.49
2022-08-16T02:41:59.698Z,78.27
2022-08-16T02:44:28.464Z,78.53
2022-08-16T02:46:56.316Z,79.22
2022-08-16T02:49:58.314Z,79.29
2022-08-16T02:52:17.411Z,80.27
2022-08-16T02:54:55.863Z,80.71
2022-08-16T02:57:25.294Z,80.55
2022-08-16T02:59:53.060Z,78.72
2022-08-16T03:02:20.741Z,79.27
2022-08-16T03:05:02.221Z,79.71
2022-08-16T03:07:37.055Z,80.49
2022-08-16T03:10:09.074Z,79.62
2022-08-16T03:12:55.914Z,80.12
2022-08-16T03:15:24.633Z,80.13
2022-08-16T03:17:54.257Z,79.87
2022-08-16T03:20:22.028Z,78.79
2022-08-16T03:23:02.644Z,79.87
2022-08-16T03:25:44.231Z,78.62
2022-08-16T03:28:17.241Z,78.06
2022-08-16T03:30:47.711Z,77.92
2022-08-16T03:33:15.840Z,77.24
2022-08-16T03:35:44.348Z,77.96
2022-08-16T03:38:34.005Z,78.13
2022-08-16T03:41:03.132Z,77.67
2022-08-16T03:43:51.747Z,76.12
2022-08-16T03:46:48.091Z,77.92
2022-08-16T03:49:11.508Z,78.59
2022-08-16T03:51:42.690Z,78.78
2022-08-16T03:54:12.377Z,79.35
2022-08-16T03:56:56.668Z,78.94
2022-08-16T03:59:29.287Z,77.90
2022-08-16T04:01:57.877Z,78.60
2022-08-16T04:04:36.409Z,79.33
2022-08-16T04:07:05.809Z,79.55
2022-08-16T04:09:38.105Z,78.77
2022-08-16T04:12:53.291Z,79.18
2022-08-16T04:15:09.114Z,79.14
2022-08-16T04:17:38.394Z,78.71
2022-08-16T04:20:31.346Z,79.09
2022-08-16T04:22:57.091Z,79.37
2022-08-16T04:25:26.517Z,79.82
2022-08-16T04:27:56.002Z,79.20
2022-08-16T04:30:31.943Z,79.49
2022-08-16T04:33:04.819Z,79.33
2022-08-16T04:35:34.754Z,78.66
2022-08-16T04:38:10.563Z,78.37
2022-08-16T04:40:38.560Z,78.43
2022-08-16T04:43:08.373Z,79.08
2022-08-16T04:45:40.310Z,78.83
2022-08-16T04:48:10.402Z,78.13
2022-08-16T04:50:43.497Z,78.19
2022-08-16T04:53:12.115Z,76.85
2022-08-16T04:55:45.935Z,76.96
2022-08-16T04:58:44.581Z,77.92
2022-08-16T05:01:02.899Z,77.35
2022-08-16T05:03:35.826Z,77.64
2022-08-16T05:06:10.188Z,77.44
2022-08-16T05:08:47.134Z,77.90
2022-08-16T05:11:16.653Z,77.23
2022-08-16T05:13:47.703Z,77.41
2022-08-16T05:16:21.724Z,77.42
2022-08-16T05:18:51.837Z,77.21
2022-08-16T05:21:20.785Z,77.36
2022-08-16T05:23:55.897Z,77.25
2022-08-16T05:26:27.779Z,76.94
2022-08-16T05:28:56.486Z,76.05
2022-08-16T05:31:29.348Z,75.87
2022-08-16T05:34:04.346Z,75.39
2022-08-16T05:36:34.160Z,74.60
2022-08-16T05:39:08.687Z,76.02
2022-08-16T05:41:45.436Z,74.76
2022-08-16T05:44:23.849Z,74.45
2022-08-16T05:46:56.473Z,72.86
2022-08-16T05:49:25.663Z,73.29
2022-08-16T05:52:11.146Z,74.24
2022-08-16T05:54:47.536Z,73.75
2022-08-16T05:57:16.470Z,74.36
2022-08-16T05:59:45.581Z,72.69
2022-08-16T06:02:15.932Z,73.41
2022-08-16T06:04:45.101Z,74.59
2022-08-16T06:07:24.524Z,75.51
2022-08-16T06:10:01.115Z,73.55
2022-08-16T06:12:32.399Z,73.12
2022-08-16T06:15:07.860Z,72.32
2022-08-16T06:17:43.219Z,72.61
2022-08-16T06:20:14.441Z,72.90
2022-08-16T06:22:47.878Z,73.35
2022-08-16T06:25:35.869Z,73.76
2022-08-16T06:28:08.846Z,73.61
2022-08-16T06:30:43.630Z,74.21
2022-08-16T06:33:19.820Z,76.25
2022-08-16T06:35:55.253Z,76.14
2022-08-16T06:38:33.305Z,73.37
2022-08-16T06:41:04.527Z,73.96
2022-08-16T06:43:34.186Z,73.10
2022-08-16T06:46:03.555Z,72.96
2022-08-16T06:48:36.601Z,72.24
2022-08-16T06:51:12.261Z,73.92
2022-08-16T06:53:42.984Z,72.80
2022-08-16T06:56:14.426Z,74.56
2022-08-16T07:01:15.676Z,73.71
2022-08-16T07:03:55.602Z,74.84
2022-08-16T07:06:26.793Z,73.75
2022-08-16T07:08:55.987Z,73.56
2022-08-16T07:11:47.394Z,73.66
2022-08-16T07:14:25.540Z,73.27
2022-08-16T07:16:54.812Z,73.25
2022-08-16T07:20:02.165Z,73.81
2022-08-16T07:22:38.767Z,72.81
2022-08-16T07:25:06.638Z,70.82
2022-08-16T07:27:37.336Z,69.94
2022-08-16T07:30:38.475Z,70.42
2022-08-16T07:32:56.910Z,69.20
2022-08-16T07:35:26.520Z,68.71
2022-08-16T07:37:54.946Z,67.79
2022-08-16T07:40:49.168Z,68.95
2022-08-16T07:43:11.719Z,66.68
2022-08-16T07:45:42.966Z,66.95
2022-08-16T07:48:13.477Z,67.23
2022-08-16T07:50:56.423Z,65.84
2022-08-16T07:53:29.149Z,64.99
2022-08-16T07:55:57.780Z,64.65
2022-08-16T07:58:35.183Z,62.07
2022-08-16T08:01:10.367Z,63.13
2022-08-16T08:03:42.487Z,62.77
2022-08-16T08:06:14.921Z,64.21
2022-08-16T08:08:50.563Z,62.56
2022-08-16T08:14:06.562Z,60.65
2022-08-16T08:16:37.649Z,61.87
2022-08-16T08:19:05.489Z,61.80
2022-08-16T08:21:58.805Z,62.30
2022-08-16T08:24:32.366Z,59.87
2022-08-16T08:27:02.075Z,60.16
2022-08-16T08:29:37.233Z,58.64
2022-08-16T08:32:59.673Z,58.06
2022-08-16T08:34:56.206Z,61.18
2022-08-16T08:37:54.278Z,59.36
2022-08-16T08:40:24.644Z,59.68
2022-08-16T08:43:00.836Z,60.68
2022-08-16T08:45:48.542Z,60.07
2022-08-16T08:48:33.016Z,59.87
2022-08-16T08:51:03.700Z,56.58
2022-08-16T08:53:33.697Z,58.47
2022-08-16T08:56:23.511Z,57.77
2022-08-16T08:58:54.762Z,56.30
2022-08-16T09:01:36.785Z,57.49
2022-08-16T09:04:14.435Z,55.30
2022-08-16T09:06:45.912Z,57.17
2022-08-16T09:09:20.120Z,56.33
2022-08-16T09:11:53.750Z,55.98
2022-08-16T09:14:34.467Z,55.23
2022-08-16T09:17:11.816Z,54.47
2022-08-16T09:19:55.119Z,55.35
2022-08-16T09:22:23.543Z,57.02
2022-08-16T09:24:58.126Z,54.75
2022-08-16T09:27:56.845Z,53.61
2022-08-16T09:30:33.353Z,53.77
2022-08-16T09:33:06.788Z,51.93
2022-08-16T09:35:37.528Z,51.45
2022-08-16T09:38:08.305Z,53.21
2022-08-16T09:40:43.351Z,53.64
2022-08-16T09:43:37.768Z,54.04
2022-08-16T09:46:00.522Z,53.46
2022-08-16T09:48:43.884Z,55.17
2022-08-16T09:51:14.420Z,53.03
2022-08-16T09:53:43.176Z,52.12
2022-08-16T09:56:21.357Z,51.76
2022-08-16T09:59:04.877Z,52.24
2022-08-16T10:01:36.574Z,54.71
2022-08-16T10:04:14.257Z,55.49
2022-08-16T10:06:53.453Z,58.01
2022-08-16T10:09:23.449Z,56.85
2022-08-16T10:12:11.747Z,55.35
2022-08-16T10:14:46.891Z,55.12
2022-08-16T10:17:18.387Z,55.80
2022-08-16T10:19:47.727Z,55.12
2022-08-16T10:22:18.481Z,55.80
2022-08-16T10:24:55.826Z,56.02
2022-08-16T10:27:45.797Z,54.12
2022-08-16T10:30:25.068Z,54.52
2022-08-16T10:32:54.112Z,55.27
2022-08-16T10:35:22.834Z,54.89
2022-08-16T10:37:53.165Z,54.49
2022-08-16T10:40:29.716Z,54.23
2022-08-16T10:43:01.059Z,54.72
2022-08-16T10:45:36.953Z,54.53
2022-08-16T10:48:06.527Z,54.22
2022-08-16T10:50:56.356Z,54.40
2022-08-16T10:53:26.478Z,53.59
2022-08-16T10:56:01.502Z,52.90
2022-08-16T10:58:34.260Z,53.00
2022-08-16T11:01:39.643Z,52.51
2022-08-16T11:03:54.041Z,52.18
2022-08-16T11:06:26.874Z,52.82
2022-08-16T11:14:34.920Z,52.14
2022-08-16T11:17:10.583Z,52.04
2022-08-16T11:22:47.255Z,53.27
2022-08-16T11:26:07.060Z,53.52
2022-08-16T11:28:06.449Z,52.51
2022-08-16T11:30:36.074Z,52.21
2022-08-16T11:33:07.306Z,51.59
2022-08-16T11:38:51.311Z,52.57
2022-08-16T11:41:13.517Z,49.99
2022-08-16T11:43:42.335Z,48.68
2022-08-16T11:46:44.691Z,48.90
2022-08-16T11:49:02.095Z,48.38
2022-08-16T11:51:29.926Z,47.89
2022-08-16T11:53:58.879Z,47.15
2022-08-16T11:56:39.497Z,47.88
2022-08-16T11:59:19.180Z,48.84
2022-08-16T12:01:59.438Z,48.68
2022-08-16T12:04:31.790Z,48.73
2022-08-16T12:06:59.947Z,48.04
2022-08-16T12:09:33.767Z,48.88
2022-08-16T12:12:09.214Z,45.32
2022-08-16T12:14:37.690Z,44.70
2022-08-16T12:17:09.343Z,45.21
2022-08-16T12:19:36.966Z,46.19
2022-08-16T12:22:19.300Z,45.03
2022-08-16T12:24:52.328Z,45.74
2022-08-16T12:27:23.010Z,45.92
2022-08-16T12:29:51.837Z,45.33
2022-08-16T12:32:38.452Z,45.60
2022-08-16T12:35:11.606Z,46.78
2022-08-16T12:37:41.699Z,46.62
2022-08-16T12:40:24.158Z,46.68
2022-08-16T12:42:54.266Z,47.40
2022-08-16T12:45:23.252Z,47.54
2022-08-16T12:48:32.896Z,47.76
2022-08-16T12:51:01.101Z,45.85
2022-08-16T12:53:31.959Z,43.82
2022-08-16T12:56:00.372Z,42.65
2022-08-16T12:58:47.489Z,41.67
2022-08-16T13:01:22.668Z,42.37
2022-08-16T13:04:11.421Z,41.38
2022-08-16T13:06:43.506Z,42.62
2022-08-16T13:09:23.712Z,44.01
2022-08-16T13:12:04.583Z,43.13
2022-08-16T13:14:37.910Z,43.16
2022-08-16T13:17:07.717Z,43.02
2022-08-16T13:22:30.573Z,43.09
2022-08-16T13:25:02.260Z,42.61
2022-08-16T13:28:02.859Z,40.98
2022-08-16T13:30:36.600Z,40.92
2022-08-16T13:33:10.753Z,40.19
2022-08-16T13:35:43.323Z,41.65
2022-08-16T13:38:12.597Z,41.79
2022-08-16T13:40:53.079Z,41.03
2022-08-16T13:43:23.849Z,40.63
2022-08-16T13:45:51.825Z,40.76
2022-08-16T13:48:24.661Z,41.26
2022-08-16T13:51:02.494Z,41.67
2022-08-16T13:53:32.493Z,41.12
2022-08-16T13:56:03.519Z,41.97
2022-08-16T13:58:34.689Z,41.59
2022-08-16T14:01:09.739Z,42.18
2022-08-16T14:03:38.730Z,41.65
2022-08-16T14:06:12.923Z,41.61
2022-08-16T14:08:43.187Z,42.97
2022-08-16T14:11:12.103Z,41.99
2022-08-16T14:13:43.847Z,41.87
2022-08-16T14:16:24.176Z,41.73
2022-08-16T14:18:52.873Z,41.26
2022-08-16T14:21:23.675Z,40.97
2022-08-16T14:23:52.684Z,40.90
2022-08-16T14:26:24.853Z,40.36
2022-08-16T14:28:53.223Z,40.79
2022-08-16T14:31:22.246Z,41.06
2022-08-16T14:33:52.651Z,41.12
2022-08-16T14:36:29.910Z,41.12
2022-08-16T14:38:58.346Z,41.38
2022-08-16T14:41:26.390Z,40.59
2022-08-16T14:43:54.470Z,40.84
2022-08-16T14:46:22.413Z,41.28
2022-08-16T14:48:50.473Z,41.34
2022-08-16T14:51:27.427Z,41.39
2022-08-16T14:53:56.995Z,42.60
2022-08-16T14:56:42.993Z,43.70
2022-08-16T14:59:12.841Z,42.54
2022-08-16T15:01:57.353Z,43.18
2022-08-16T15:04:32.569Z,43.56
2022-08-16T15:07:12.651Z,43.70
2022-08-16T15:09:44.225Z,44.00
2022-08-16T15:12:31.144Z,43.04
2022-08-16T15:15:13.164Z,43.42
2022-08-16T15:17:56.741Z,43.91
2022-08-16T15:20:30.324Z,44.39
2022-08-16T15:23:01.659Z,44.31
2022-08-16T15:25:30.511Z,43.79
2022-08-16T15:27:58.594Z,42.21
2022-08-16T15:30:57.818Z,42.47
2022-08-16T15:33:17.436Z,41.96
2022-08-16T15:35:46.352Z,42.69
2022-08-16T15:38:57.154Z,44.50
2022-08-16T15:41:03.377Z,45.58
2022-08-16T15:43:39.522Z,44.30
2022-08-16T15:46:35.155Z,43.89
2022-08-16T15:49:13.706Z,44.18
2022-08-16T15:51:43.668Z,45.16
2022-08-16T15:54:30.367Z,46.19
2022-08-16T15:57:02.957Z,46.71
2022-08-16T15:59:47.984Z,45.65
2022-08-16T16:02:24.469Z,45.78
2022-08-16T16:05:00.670Z,45.20
2022-08-16T16:07:29.986Z,44.97
2022-08-16T16:10:00.840Z,44.21
2022-08-16T16:12:51.044Z,44.96
2022-08-16T16:15:16.495Z,44.12
2022-08-16T16:17:46.811Z,43.79
2022-08-16T16:20:19.407Z,43.04
2022-08-16T16:22:49.345Z,43.35
2022-08-16T16:25:20.161Z,44.19
2022-08-16T16:27:55.656Z,44.86
2022-08-16T16:30:45.065Z,43.93
2022-08-16T16:33:20.652Z,43.99
2022-08-16T16:35:55.315Z,43.62
2022-08-16T16:38:26.894Z,44.91
2022-08-16T16:40:56.251Z,44.19
2022-08-16T16:43:25.995Z,44.93
2022-08-16T16:45:59.325Z,45.62
2022-08-16T16:48:35.075Z,46.02
2022-08-16T16:51:09.042Z,46.29
2022-08-16T16:53:40.476Z,46.59
2022-08-16T16:56:10.550Z,47.12
2022-08-16T16:59:04.692Z,47.27
2022-08-16T17:01:59.482Z,47.45
2022-08-16T17:04:32.246Z,47.51
2022-08-16T17:07:01.314Z,47.45
2022-08-16T17:09:29.405Z,46.90
2022-08-16T17:11:59.496Z,47.13
2022-08-16T17:14:32.964Z,46.88
2022-08-16T17:17:03.993Z,47.18
2022-08-16T17:19:41.274Z,47.39
2022-08-16T17:22:14.912Z,47.00
2022-08-16T17:24:45.052Z,47.16
2022-08-16T17:27:18.068Z,47.13
2022-08-16T17:29:51.572Z,46.96
2022-08-16T17:32:33.885Z,47.27
2022-08-16T17:35:13.087Z,47.30
2022-08-16T17:37:51.886Z,47.91
2022-08-16T17:40:47.390Z,48.14
2022-08-16T17:43:19.369Z,48.60
2022-08-16T17:45:49.447Z,48.61
2022-08-16T17:48:18.211Z,48.64
2022-08-16T17:50:46.657Z,48.36
2022-08-16T17:53:16.398Z,48.64
2022-08-16T17:55:49.582Z,48.31
2022-08-16T17:58:24.115Z,48.98
2022-08-16T18:00:55.911Z,48.49
2022-08-16T18:04:02.441Z,48.73
2022-08-16T18:06:16.940Z,48.60
2022-08-16T18:08:45.270Z,48.63
2022-08-16T18:11:25.709Z,48.87
2022-08-16T18:13:59.784Z,49.25
2022-08-16T18:16:27.467Z,49.45
2022-08-16T18:18:55.248Z,49.88
2022-08-16T18:21:42.612Z,49.99
2022-08-16T18:24:14.886Z,49.92
2022-08-16T18:26:42.838Z,50.06
2022-08-16T18:29:16.936Z,50.07
2022-08-16T18:31:44.981Z,50.13
2022-08-16T18:34:12.853Z,50.00
2022-08-16T18:36:43.177Z,50.13
2022-08-16T18:39:12.759Z,50.24
2022-08-16T18:41:40.969Z,49.98
2022-08-16T18:44:25.566Z,50.13
2022-08-16T18:46:58.333Z,49.82
2022-08-16T18:49:26.387Z,50.07
2022-08-16T18:51:57.293Z,50.40
2022-08-16T18:54:26.318Z,51.19
2022-08-16T18:56:56.705Z,51.62
2022-08-16T18:59:26.397Z,50.38
2022-08-16T19:01:59.977Z,50.32
2022-08-16T19:04:56.838Z,50.34
2022-08-16T19:07:23.276Z,50.38
2022-08-16T19:09:59.357Z,50.68
2022-08-16T19:12:37.885Z,50.62
2022-08-16T19:15:12.169Z,51.04
2022-08-16T19:17:41.694Z,51.17
2022-08-16T19:20:11.854Z,51.46
2022-08-16T19:23:02.254Z,51.83
2022-08-16T19:25:46.886Z,51.89
2022-08-16T19:28:50.629Z,53.68
2022-08-16T19:31:05.660Z,53.75
2022-08-16T19:33:33.564Z,53.59
2022-08-16T19:36:03.404Z,53.51
2022-08-16T19:38:34.317Z,53.04
2022-08-16T19:41:02.777Z,52.18
2022-08-16T19:43:30.619Z,52.06
2022-08-16T19:45:58.343Z,54.63
2022-08-16T19:48:31.001Z,53.02
2022-08-16T19:50:58.755Z,52.35
2022-08-16T19:53:28.084Z,53.52
2022-08-16T19:55:56.090Z,54.87
2022-08-16T19:58:23.858Z,54.48
2022-08-16T20:00:52.397Z,55.28
2022-08-16T20:03:24.556Z,55.69
2022-08-16T20:05:55.215Z,55.44
2022-08-16T20:08:25.382Z,56.50
2022-08-16T20:10:55.702Z,57.25
2022-08-16T20:13:24.338Z,56.35
2022-08-16T20:15:53.403Z,56.98
2022-08-16T20:18:25.359Z,57.50
2022-08-16T20:20:54.946Z,56.74
2022-08-16T20:23:25.707Z,57.24
2022-08-16T20:25:56.633Z,57.40
2022-08-16T20:28:39.703Z,57.95
2022-08-16T20:31:14.701Z,57.40
2022-08-16T20:33:42.585Z,57.58
2022-08-16T20:36:10.658Z,58.09
2022-08-16T20:38:50.400Z,57.76
2022-08-16T20:41:30.201Z,56.66
2022-08-16T20:43:58.448Z,56.75
2022-08-16T20:46:29.418Z,57.81
2022-08-16T20:48:57.221Z,57.54
2022-08-16T20:51:27.235Z,57.48
2022-08-16T20:53:57.446Z,57.20
2022-08-16T20:56:33.010Z,57.08
2022-08-16T20:59:01.084Z,57.77
2022-08-16T21:01:45.457Z,58.45
2022-08-16T21:04:19.050Z,59.39
2022-08-16T21:06:53.870Z,59.93
2022-08-16T21:09:23.091Z,59.55
2022-08-16T21:11:54.160Z,58.40
2022-08-16T21:14:21.906Z,58.51
2022-08-16T21:16:56.083Z,58.25
2022-08-16T21:19:23.803Z,58.05
2022-08-16T21:21:51.943Z,58.58
2022-08-16T21:24:19.719Z,59.05
2022-08-16T21:26:53.927Z,59.04
2022-08-16T21:29:25.261Z,58.67
2022-08-16T21:32:14.614Z,59.27
2022-08-16T21:34:44.913Z,59.27
2022-08-16T21:37:15.539Z,58.80
2022-08-16T21:39:43.658Z,59.20
2022-08-16T21:42:18.742Z,58.86
2022-08-16T21:44:51.115Z,59.84
2022-08-16T21:47:18.740Z,59.47
2022-08-16T21:49:46.499Z,59.77
2022-08-16T21:52:26.264Z,59.63
2022-08-16T21:54:59.430Z,59.60
2022-08-16T21:57:36.233Z,60.28
2022-08-16T22:00:08.170Z,60.93
2022-08-16T22:02:38.898Z,60.84
2022-08-16T22:05:07.306Z,61.32
2022-08-16T22:07:35.198Z,61.24
2022-08-16T22:11:04.147Z,62.99
2022-08-16T22:12:51.461Z,61.68
2022-08-16T22:15:26.036Z,61.37
2022-08-16T22:17:54.054Z,60.85
2022-08-16T22:20:23.194Z,61.01
2022-08-16T22:22:51.845Z,61.50
2022-08-16T22:25:19.905Z,61.68
2022-08-16T22:27:47.575Z,61.35
2022-08-16T22:30:15.577Z,61.59
2022-08-16T22:32:45.959Z,61.77
2022-08-16T22:35:14.495Z,61.91
2022-08-16T22:38:50.576Z,62.79
2022-08-16T22:40:30.121Z,62.86
2022-08-16T22:43:11.983Z,62.33
2022-08-16T22:45:39.928Z,62.69
2022-08-16T22:48:14.037Z,62.57
2022-08-16T22:50:43.098Z,63.04
2022-08-16T22:53:10.867Z,63.12
2022-08-16T22:55:40.671Z,63.90
2022-08-16T22:58:10.473Z,63.52
2022-08-16T23:00:38.442Z,63.36
2022-08-16T23:03:07.538Z,63.93
2022-08-16T23:05:38.042Z,63.89
2022-08-16T23:08:06.420Z,63.02
2022-08-16T23:10:36.099Z,62.76
2022-08-16T23:13:04.937Z,61.99
2022-08-16T23:15:43.067Z,62.53
2022-08-16T23:18:11.485Z,62.43
2022-08-16T23:20:42.499Z,62.12
2022-08-16T23:23:20.355Z,62.59
2022-08-16T23:25:55.231Z,62.26
2022-08-16T23:28:29.098Z,62.60
2022-08-16T23:30:59.930Z,63.57
2022-08-16T23:33:29.834Z,63.91
2022-08-16T23:35:59.284Z,63.47
2022-08-16T23:38:37.457Z,64.60
2022-08-16T23:41:09.500Z,64.68
2022-08-16T23:43:45.513Z,64.54
2022-08-16T23:46:15.163Z,64.28
2022-08-16T23:49:56.240Z,63.89
2022-08-16T23:51:33.450Z,61.91
2022-08-16T23:54:01.257Z,60.39
2022-08-16T23:56:40.540Z,60.65
2022-08-16T23:59:24.142Z,61.65
